Time;durP1;ratioP1;P1;durP2;ratioP2;P2;SDS_P1;SDS_P2;PMS_P1;PMS_P2;Temp;Humidity;BMP_temperature;BMP_pressure;BME280_temperature;BME280_humidity;BME280_pressure;Samples;Min_cycle;Max_cycle;Signal;HPM_P1;HPM_P2
2021/12/08 00:00:12;;;;;;;;;;;5.90;99.90;;;;;;5096645;28;20363;-80
2021/12/08 00:02:38;;;;;;;;;;;6.00;99.90;;;;;;5096483;28;19940;-79
2021/12/08 00:05:04;;;;;;;;;;;6.00;99.90;;;;;;5096841;28;19931;-81
2021/12/08 00:07:30;;;;;;;;;;;6.00;99.90;;;;;;5096663;28;19915;-80
2021/12/08 00:10:04;;;;;;;;;;;5.90;99.90;;;;;;5096357;28;19912;-80
2021/12/08 00:15:14;;;;;;;;;;;5.90;99.90;;;;;;5096268;28;20415;-80
2021/12/08 00:17:40;;;;;;;;;;;6.00;99.90;;;;;;5096430;28;19908;-80
2021/12/08 00:20:06;;;;;;;;;;;6.00;99.90;;;;;;5095515;28;19908;-79
2021/12/08 00:22:32;;;;;;;;;;;5.90;99.90;;;;;;5096171;28;19957;-80
2021/12/08 00:24:57;;;;;;;;;;;5.90;99.90;;;;;;5096309;28;19908;-80
2021/12/08 00:27:23;;;;;;;;;;;5.90;99.90;;;;;;5096209;28;19953;-81
2021/12/08 00:29:49;;;;;;;;;;;5.90;99.90;;;;;;5077873;28;19916;-80
2021/12/08 00:32:14;;;;;;;;;;;6.00;99.90;;;;;;5096052;28;19972;-80
2021/12/08 00:34:40;;;;;;;;;;;6.00;99.90;;;;;;5077748;28;19908;-79
2021/12/08 00:37:06;;;;;;;;;;;5.90;99.90;;;;;;5077791;28;19958;-80
2021/12/08 00:39:33;;;;;;;;;;;5.90;99.90;;;;;;5095876;28;19908;-81
2021/12/08 00:41:59;;;;;;;;;;;5.90;99.90;;;;;;5077726;28;20067;-79
2021/12/08 00:44:24;;;;;;;;;;;5.90;99.90;;;;;;5095983;28;20326;-80
2021/12/08 00:46:50;;;;;;;;;;;5.90;99.90;;;;;;5095878;28;19908;-80
2021/12/08 00:49:16;;;;;;;;;;;5.90;99.90;;;;;;5095774;28;19912;-80
2021/12/08 00:51:42;;;;;;;;;;;5.90;99.90;;;;;;5077427;28;19908;-80
2021/12/08 00:54:08;;;;;;;;;;;5.90;99.90;;;;;;5095798;28;19912;-80
2021/12/08 00:56:34;;;;;;;;;;;5.90;99.90;;;;;;5095736;28;20281;-80
2021/12/08 00:58:59;;;;;;;;;;;5.80;99.90;;;;;;5095543;28;19908;-78
2021/12/08 01:01:25;;;;;;;;;;;5.90;99.90;;;;;;5095452;28;19915;-79
2021/12/08 01:03:51;;;;;;;;;;;5.70;99.90;;;;;;5095424;28;20299;-78
2021/12/08 01:06:17;;;;;;;;;;;5.80;99.90;;;;;;5095359;28;19915;-79
2021/12/08 01:08:43;;;;;;;;;;;5.90;99.90;;;;;;5095390;28;19919;-79
2021/12/08 01:11:10;;;;;;;;;;;5.90;99.90;;;;;;5076914;28;19924;-80
2021/12/08 01:13:36;;;;;;;;;;;5.90;99.90;;;;;;5095611;28;19931;-79
2021/12/08 01:16:02;;;;;;;;;;;5.90;99.90;;;;;;5095300;28;20407;-80
2021/12/08 01:18:29;;;;;;;;;;;5.90;99.90;;;;;;5095121;28;19914;-78
2021/12/08 01:20:57;;;;;;;;;;;5.90;99.90;;;;;;5095102;28;20279;-79
2021/12/08 01:23:24;;;;;;;;;;;6.00;99.90;;;;;;5076828;28;19908;-79
2021/12/08 01:25:49;;;;;;;;;;;5.90;99.90;;;;;;5094993;28;19912;-79
2021/12/08 01:28:19;;;;;;;;;;;5.90;99.90;;;;;;5094876;28;19916;-79
2021/12/08 01:30:45;;;;;;;;;;;5.90;99.90;;;;;;5094921;28;19915;-79
2021/12/08 01:33:10;;;;;;;;;;;5.90;99.90;;;;;;5094620;28;19908;-79
2021/12/08 01:35:36;;;;;;;;;;;5.90;99.90;;;;;;5095190;28;19908;-78
2021/12/08 01:38:02;;;;;;;;;;;5.80;99.90;;;;;;5094796;28;20380;-79
2021/12/08 01:40:28;;;;;;;;;;;5.90;99.90;;;;;;5076484;28;20379;-78
2021/12/08 01:42:56;;;;;;;;;;;5.90;99.90;;;;;;5094741;28;19908;-80
2021/12/08 01:48:12;;;;;;;;;;;5.70;99.90;;;;;;5094604;28;19918;-80
2021/12/08 01:50:40;;;;;;;;;;;5.60;99.90;;;;;;5076332;28;19953;-80
2021/12/08 01:53:07;;;;;;;;;;;5.60;99.90;;;;;;5094495;28;19915;-79
2021/12/08 01:55:33;;;;;;;;;;;5.60;99.90;;;;;;5094794;28;20350;-80
2021/12/08 01:57:59;;;;;;;;;;;5.50;99.90;;;;;;5075893;28;19960;-80
2021/12/08 02:00:27;;;;;;;;;;;5.50;99.90;;;;;;5094473;28;19908;-80
2021/12/08 02:02:52;;;;;;;;;;;5.50;99.90;;;;;;5076196;28;19915;-80
2021/12/08 02:05:18;;;;;;;;;;;5.40;99.90;;;;;;5094319;28;20280;-80
2021/12/08 02:07:43;;;;;;;;;;;5.40;99.90;;;;;;5094555;28;20387;-80
2021/12/08 02:10:10;;;;;;;;;;;5.40;99.90;;;;;;5094255;28;20003;-80
2021/12/08 02:12:40;;;;;;;;;;;5.30;99.90;;;;;;5093837;28;20295;-81
2021/12/08 02:15:06;;;;;;;;;;;5.30;99.90;;;;;;5076019;28;20044;-78
2021/12/08 02:17:32;;;;;;;;;;;5.30;99.90;;;;;;5094069;28;19956;-80
2021/12/08 02:19:57;;;;;;;;;;;5.20;99.90;;;;;;5094049;28;20385;-80
2021/12/08 02:22:23;;;;;;;;;;;5.20;99.90;;;;;;5094238;28;19908;-79
2021/12/08 02:24:49;;;;;;;;;;;5.20;99.90;;;;;;5093988;28;19919;-80
2021/12/08 02:27:14;;;;;;;;;;;5.20;99.90;;;;;;5094188;28;19908;-80
2021/12/08 02:29:53;;;;;;;;;;;5.20;99.90;;;;;;5093847;28;20275;-78
2021/12/08 02:48:28;;;;;;;;;;;5.00;99.90;;;;;;5093710;28;19935;-79
2021/12/08 02:50:54;;;;;;;;;;;4.90;99.90;;;;;;5093937;28;19908;-80
2021/12/08 02:53:19;;;;;;;;;;;4.90;99.90;;;;;;5093762;28;19912;-79
2021/12/08 02:55:45;;;;;;;;;;;4.90;99.90;;;;;;5093694;28;19912;-81
2021/12/08 02:58:12;;;;;;;;;;;4.90;99.90;;;;;;5093955;28;19971;-80
2021/12/08 03:00:40;;;;;;;;;;;4.80;99.90;;;;;;5093571;28;19914;-80
2021/12/08 03:03:06;;;;;;;;;;;4.70;99.90;;;;;;5093800;28;19954;-79
2021/12/08 03:05:32;;;;;;;;;;;4.80;99.90;;;;;;5093611;28;20323;-79
2021/12/08 03:07:58;;;;;;;;;;;4.70;99.90;;;;;;5093619;28;19908;-79
2021/12/08 03:10:29;;;;;;;;;;;4.70;99.90;;;;;;5093602;28;19923;-80
2021/12/08 03:12:54;;;;;;;;;;;4.60;99.90;;;;;;5051799;28;20393;-80
2021/12/08 03:15:20;;;;;;;;;;;4.70;99.90;;;;;;5053646;28;19916;-79
2021/12/08 03:17:46;;;;;;;;;;;4.70;99.90;;;;;;5053399;28;19909;-79
2021/12/08 03:20:15;;;;;;;;;;;4.60;99.90;;;;;;5051978;28;19909;-79
2021/12/08 03:22:45;;;;;;;;;;;4.60;99.90;;;;;;5051909;28;19916;-80
2021/12/08 03:25:14;;;;;;;;;;;4.60;99.90;;;;;;5053183;28;19908;-80
2021/12/08 03:27:47;;;;;;;;;;;4.60;99.90;;;;;;5051895;28;19920;-80
2021/12/08 03:30:24;;;;;;;;;;;4.60;99.90;;;;;;5053239;28;19912;-80
2021/12/08 03:32:55;;;;;;;;;;;4.60;99.90;;;;;;5053150;28;19913;-80
2021/12/08 03:35:21;;;;;;;;;;;4.60;99.90;;;;;;5051571;28;19916;-80
2021/12/08 03:37:46;;;;;;;;;;;4.50;99.90;;;;;;5053043;28;19913;-81
2021/12/08 03:40:16;;;;;;;;;;;4.60;99.90;;;;;;5051735;28;19913;-79
2021/12/08 03:42:43;;;;;;;;;;;4.60;99.90;;;;;;5053042;28;19975;-81
2021/12/08 03:45:11;;;;;;;;;;;4.50;99.90;;;;;;5053219;28;19915;-78
2021/12/08 03:47:39;;;;;;;;;;;4.60;99.90;;;;;;5051741;28;19909;-79
2021/12/08 03:50:06;;;;;;;;;;;4.50;99.90;;;;;;5052947;28;19913;-80
2021/12/08 03:52:32;;;;;;;;;;;4.50;99.90;;;;;;5053012;28;20270;-80
2021/12/08 03:54:58;;;;;;;;;;;4.60;99.90;;;;;;5053694;28;19909;-79
2021/12/08 03:57:23;;;;;;;;;;;4.40;99.90;;;;;;5056517;28;19916;-80
2021/12/08 03:59:49;;;;;;;;;;;4.40;99.90;;;;;;5055195;28;19919;-79
2021/12/08 04:02:15;;;;;;;;;;;4.30;99.90;;;;;;5056528;28;19916;-79
2021/12/08 04:04:46;;;;;;;;;;;4.20;99.90;;;;;;5056382;28;19917;-80
2021/12/08 04:07:13;;;;;;;;;;;4.10;99.90;;;;;;5056379;28;19962;-80
2021/12/08 04:09:44;;;;;;;;;;;4.20;99.90;;;;;;5056159;28;19917;-80
2021/12/08 04:12:11;;;;;;;;;;;4.20;99.90;;;;;;5068946;28;19924;-81
2021/12/08 04:14:39;;;;;;;;;;;4.20;99.90;;;;;;5076293;28;19908;-79
2021/12/08 04:17:10;;;;;;;;;;;4.20;99.90;;;;;;5074858;28;19908;-78
2021/12/08 04:19:36;;;;;;;;;;;4.20;99.90;;;;;;5076490;28;19915;-80
2021/12/08 04:22:05;;;;;;;;;;;4.30;99.90;;;;;;5076316;28;19908;-80
2021/12/08 04:24:31;;;;;;;;;;;4.30;99.90;;;;;;5076106;28;20381;-81
2021/12/08 04:27:03;;;;;;;;;;;4.10;99.90;;;;;;5074654;28;19955;-79
2021/12/08 04:29:30;;;;;;;;;;;4.00;99.90;;;;;;5074563;28;19912;-80
2021/12/08 04:31:56;;;;;;;;;;;4.00;99.90;;;;;;5076069;28;19915;-80
2021/12/08 04:34:27;;;;;;;;;;;4.10;99.90;;;;;;5075878;28;19915;-79
2021/12/08 04:36:54;;;;;;;;;;;4.00;99.90;;;;;;5076121;28;19958;-81
2021/12/08 04:40:27;;;;;;;;;;;4.10;99.90;;;;;;5075733;28;19909;-80
2021/12/08 04:45:21;;;;;;;;;;;4.00;99.90;;;;;;5075657;28;19970;-81
2021/12/08 04:53:45;;;;;;;;;;;4.20;99.90;;;;;;5064398;28;19908;-80
2021/12/08 05:07:02;;;;;;;;;;;4.40;99.90;;;;;;5075063;28;19962;-79
2021/12/08 05:09:31;;;;;;;;;;;4.40;99.90;;;;;;5073446;28;20442;-79
2021/12/08 05:12:04;;;;;;;;;;;4.50;99.90;;;;;;5073615;28;20069;-79
2021/12/08 05:14:33;;;;;;;;;;;4.60;99.90;;;;;;5075374;28;19961;-80
2021/12/08 05:17:02;;;;;;;;;;;4.70;99.90;;;;;;5075118;28;19912;-80
2021/12/08 05:19:29;;;;;;;;;;;4.70;99.90;;;;;;5075012;28;19930;-80
2021/12/08 05:22:00;;;;;;;;;;;4.70;99.90;;;;;;5074880;28;19909;-80
2021/12/08 05:24:32;;;;;;;;;;;4.70;99.90;;;;;;5074038;28;20217;-80
2021/12/08 05:27:03;;;;;;;;;;;4.70;99.90;;;;;;5074991;28;20357;-80
2021/12/08 05:29:40;;;;;;;;;;;4.80;99.90;;;;;;5074913;28;20381;-80
2021/12/08 05:32:06;;;;;;;;;;;4.80;99.90;;;;;;5075167;28;19908;-81
2021/12/08 05:34:32;;;;;;;;;;;4.90;99.90;;;;;;5074628;28;19908;-80
2021/12/08 05:36:58;;;;;;;;;;;4.90;99.90;;;;;;5074742;28;19908;-80
2021/12/08 05:39:25;;;;;;;;;;;4.80;99.90;;;;;;5074533;28;19916;-79
2021/12/08 05:41:54;;;;;;;;;;;4.80;99.90;;;;;;5074491;28;19973;-81
2021/12/08 05:44:20;;;;;;;;;;;4.80;99.90;;;;;;5073174;28;19913;-79
2021/12/08 05:46:47;;;;;;;;;;;4.90;99.90;;;;;;5074425;28;19974;-81
2021/12/08 05:49:14;;;;;;;;;;;4.90;99.90;;;;;;5072939;28;20007;-80
2021/12/08 05:51:40;;;;;;;;;;;4.90;99.90;;;;;;5074290;28;19920;-79
2021/12/08 05:54:07;;;;;;;;;;;4.90;99.90;;;;;;5074498;28;19917;-80
2021/12/08 05:56:33;;;;;;;;;;;4.80;99.90;;;;;;5074216;28;19915;-79
2021/12/08 05:58:59;;;;;;;;;;;4.80;99.90;;;;;;5074201;28;19908;-79
2021/12/08 06:01:28;;;;;;;;;;;4.80;99.90;;;;;;5074276;28;19915;-81
2021/12/08 06:03:53;;;;;;;;;;;4.80;99.90;;;;;;5074115;28;20438;-80
2021/12/08 06:06:20;;;;;;;;;;;4.70;99.90;;;;;;5074023;28;19912;-80
2021/12/08 06:08:47;;;;;;;;;;;4.70;99.90;;;;;;5074367;28;20347;-80
2021/12/08 06:11:13;;;;;;;;;;;4.70;99.90;;;;;;5072414;28;20384;-79
2021/12/08 06:13:39;;;;;;;;;;;4.70;99.90;;;;;;5073958;28;19919;-80
2021/12/08 06:16:05;;;;;;;;;;;4.60;99.90;;;;;;5074018;28;19916;-80
2021/12/08 06:18:38;;;;;;;;;;;4.60;99.90;;;;;;5071684;28;20368;-80
2021/12/08 06:21:04;;;;;;;;;;;4.60;99.90;;;;;;5074338;28;19999;-79
2021/12/08 06:23:32;;;;;;;;;;;4.60;99.90;;;;;;5073850;28;19912;-81
2021/12/08 06:25:58;;;;;;;;;;;4.70;99.90;;;;;;5072520;28;19915;-81
2021/12/08 06:28:24;;;;;;;;;;;4.80;99.90;;;;;;5073752;28;19913;-81
2021/12/08 06:30:51;;;;;;;;;;;4.80;99.90;;;;;;5073687;28;20261;-81
2021/12/08 06:33:17;;;;;;;;;;;4.70;99.90;;;;;;5073783;28;19909;-80
2021/12/08 06:35:45;;;;;;;;;;;4.70;99.90;;;;;;5073912;28;19909;-80
2021/12/08 06:38:11;;;;;;;;;;;4.70;99.90;;;;;;5073701;28;19915;-80
2021/12/08 06:40:37;;;;;;;;;;;4.70;99.90;;;;;;5073904;28;19991;-80
2021/12/08 06:43:04;;;;;;;;;;;4.50;99.90;;;;;;5073577;28;19947;-81
2021/12/08 06:45:33;;;;;;;;;;;4.50;99.90;;;;;;5073568;28;20319;-81
2021/12/08 06:48:01;;;;;;;;;;;4.60;99.90;;;;;;5073610;28;19995;-81
2021/12/08 06:50:34;;;;;;;;;;;4.60;99.90;;;;;;5073521;28;19916;-80
2021/12/08 06:53:00;;;;;;;;;;;4.60;99.90;;;;;;5071988;28;19912;-80
2021/12/08 06:55:32;;;;;;;;;;;4.60;99.90;;;;;;5073501;28;20007;-78
2021/12/08 06:58:01;;;;;;;;;;;4.60;99.90;;;;;;5073611;28;19916;-80
2021/12/08 07:00:56;;;;;;;;;;;4.70;99.90;;;;;;5073340;28;19915;-80
2021/12/08 07:03:39;;;;;;;;;;;4.80;99.90;;;;;;5073556;28;20349;-80
2021/12/08 07:06:18;;;;;;;;;;;4.70;99.90;;;;;;5071936;28;19915;-81
2021/12/08 07:08:46;;;;;;;;;;;4.80;99.90;;;;;;5071793;28;20007;-80
2021/12/08 07:11:14;;;;;;;;;;;4.70;99.90;;;;;;5079405;28;19920;-80
2021/12/08 07:13:40;;;;;;;;;;;4.70;99.90;;;;;;5093555;28;19916;-79
2021/12/08 07:16:09;;;;;;;;;;;4.60;99.90;;;;;;5093476;28;19908;-81
2021/12/08 07:18:52;;;;;;;;;;;4.70;99.90;;;;;;5093810;28;19962;-81
2021/12/08 07:21:18;;;;;;;;;;;4.90;99.90;;;;;;5075021;28;19908;-80
2021/12/08 07:23:55;;;;;;;;;;;4.80;99.90;;;;;;5075277;28;19915;-80
2021/12/08 07:26:22;;;;;;;;;;;4.70;99.90;;;;;;5093810;28;19931;-80
2021/12/08 07:28:49;;;;;;;;;;;4.80;99.90;;;;;;5093441;28;19912;-80
2021/12/08 07:31:19;;;;;;;;;;;4.80;99.90;;;;;;5096234;28;19908;-79
2021/12/08 07:33:46;;;;;;;;;;;4.80;99.90;;;;;;5078719;28;19915;-81
2021/12/08 07:36:15;;;;;;;;;;;4.70;99.90;;;;;;5097354;28;20006;-80
2021/12/08 07:38:42;;;;;;;;;;;4.90;99.90;;;;;;5097405;28;20437;-80
2021/12/08 07:43:55;;;;;;;;;;;4.50;99.90;;;;;;5097064;28;20387;-80
2021/12/08 07:46:32;;;;;;;;;;;4.60;99.90;;;;;;5097385;28;20288;-80
2021/12/08 07:48:59;;;;;;;;;;;4.60;99.90;;;;;;5097028;28;19918;-80
2021/12/08 07:51:37;;;;;;;;;;;4.50;99.90;;;;;;5096956;28;20385;-79
2021/12/08 07:54:04;;;;;;;;;;;4.50;99.90;;;;;;5096847;28;19912;-81
2021/12/08 07:56:32;;;;;;;;;;;4.50;99.90;;;;;;5078582;28;19919;-80
2021/12/08 07:59:00;;;;;;;;;;;4.50;99.90;;;;;;5096740;28;19947;-80
2021/12/08 08:01:28;;;;;;;;;;;4.50;99.90;;;;;;5096690;28;20266;-80
2021/12/08 08:03:54;;;;;;;;;;;4.40;99.90;;;;;;5096667;28;19936;-80
2021/12/08 08:06:22;;;;;;;;;;;4.50;99.90;;;;;;5096833;28;19912;-79
2021/12/08 08:08:47;;;;;;;;;;;4.70;99.90;;;;;;5096669;28;20284;-80
2021/12/08 08:11:18;;;;;;;;;;;4.80;99.90;;;;;;5096286;28;19920;-79
2021/12/08 08:13:44;;;;;;;;;;;4.60;99.90;;;;;;5096760;28;19908;-81
2021/12/08 08:16:12;;;;;;;;;;;4.70;99.90;;;;;;5078254;28;19919;-78
2021/12/08 08:18:39;;;;;;;;;;;4.50;99.90;;;;;;5096364;28;20372;-81
2021/12/08 08:21:18;;;;;;;;;;;4.80;99.90;;;;;;5096328;28;19909;-80
2021/12/08 08:23:46;;;;;;;;;;;4.80;99.90;;;;;;5077847;28;19923;-80
2021/12/08 08:26:13;;;;;;;;;;;4.80;99.90;;;;;;5096205;28;19908;-81
2021/12/08 08:28:40;;;;;;;;;;;4.90;99.90;;;;;;5096098;28;20429;-81
2021/12/08 08:31:14;;;;;;;;;;;5.00;99.90;;;;;;5096079;28;20288;-81
2021/12/08 08:33:41;;;;;;;;;;;5.20;99.90;;;;;;5077944;28;19919;-81
2021/12/08 08:36:10;;;;;;;;;;;5.10;99.90;;;;;;5096435;28;19951;-81
2021/12/08 08:38:42;;;;;;;;;;;5.10;99.90;;;;;;5095951;28;19995;-81
2021/12/08 08:41:13;;;;;;;;;;;5.10;99.90;;;;;;5095370;28;19915;-79
2021/12/08 08:43:40;;;;;;;;;;;5.10;99.90;;;;;;5095662;28;19951;-80
2021/12/08 08:46:09;;;;;;;;;;;5.20;99.90;;;;;;5095842;28;19912;-80
2021/12/08 08:48:44;;;;;;;;;;;5.00;99.90;;;;;;5095728;28;20432;-79
2021/12/08 08:51:16;;;;;;;;;;;5.10;99.90;;;;;;5095330;28;19909;-79
2021/12/08 08:53:49;;;;;;;;;;;5.00;99.90;;;;;;5095706;28;19931;-80
2021/12/08 08:56:17;;;;;;;;;;;5.30;99.90;;;;;;5095916;28;19908;-80
2021/12/08 08:58:44;;;;;;;;;;;5.30;99.90;;;;;;5095686;28;19927;-80
2021/12/08 09:01:22;;;;;;;;;;;5.40;99.90;;;;;;5094157;28;20414;-80
2021/12/08 09:03:50;;;;;;;;;;;5.50;99.90;;;;;;5077373;28;19989;-79
2021/12/08 09:06:18;;;;;;;;;;;6.00;99.90;;;;;;5095419;28;19915;-79
2021/12/08 09:08:45;;;;;;;;;;;5.90;99.90;;;;;;5095461;28;19965;-80
2021/12/08 09:11:15;;;;;;;;;;;5.40;99.90;;;;;;5095154;28;19927;-78
2021/12/08 09:13:47;;;;;;;;;;;5.50;99.90;;;;;;5077159;28;20007;-80
2021/12/08 09:16:18;;;;;;;;;;;5.40;99.90;;;;;;5077026;28;19908;-79
2021/12/08 09:19:01;;;;;;;;;;;5.30;99.90;;;;;;5076778;28;20003;-81
2021/12/08 09:21:33;;;;;;;;;;;5.30;99.90;;;;;;5095671;28;20365;-80
2021/12/08 09:24:08;;;;;;;;;;;6.20;99.90;;;;;;5095267;28;19957;-80
2021/12/08 09:26:35;;;;;;;;;;;7.00;99.90;;;;;;5095068;28;19908;-78
2021/12/08 09:29:06;;;;;;;;;;;7.40;99.90;;;;;;5095033;28;19912;-80
2021/12/08 09:31:36;;;;;;;;;;;8.00;99.90;;;;;;5095295;28;20395;-79
2021/12/08 09:34:01;;;;;;;;;;;8.90;99.90;;;;;;5095080;28;19912;-79
2021/12/08 09:36:34;;;;;;;;;;;9.70;99.90;;;;;;5094841;28;19915;-80
2021/12/08 09:39:04;;;;;;;;;;;9.20;99.90;;;;;;5076515;28;19918;-81
2021/12/08 09:41:37;;;;;;;;;;;10.30;99.90;;;;;;5094964;28;19912;-81
2021/12/08 09:44:14;;;;;;;;;;;11.10;99.90;;;;;;5095007;28;19933;-81
2021/12/08 09:46:41;;;;;;;;;;;10.70;99.90;;;;;;5094780;28;19912;-81
2021/12/08 09:49:08;;;;;;;;;;;10.30;99.90;;;;;;5094519;28;19934;-79
2021/12/08 09:51:34;;;;;;;;;;;11.20;99.90;;;;;;5094934;28;20383;-81
2021/12/08 09:54:00;;;;;;;;;;;11.60;98.30;;;;;;5094391;28;19966;-79
2021/12/08 09:56:27;;;;;;;;;;;11.70;98.20;;;;;;5094475;28;19908;-80
2021/12/08 09:58:53;;;;;;;;;;;11.40;97.40;;;;;;5094621;28;20346;-81
2021/12/08 10:01:21;;;;;;;;;;;11.90;97.40;;;;;;5094386;28;19914;-79
2021/12/08 10:03:47;;;;;;;;;;;12.20;96.20;;;;;;5094387;28;20356;-81
2021/12/08 10:06:14;;;;;;;;;;;11.80;96.80;;;;;;5094310;28;20049;-79
2021/12/08 10:08:43;;;;;;;;;;;12.10;97.00;;;;;;5094427;28;19912;-80
2021/12/08 10:11:09;;;;;;;;;;;12.90;95.10;;;;;;5072658;28;19917;-81
2021/12/08 10:13:35;;;;;;;;;;;13.40;94.00;;;;;;5073973;28;20372;-82
2021/12/08 10:16:01;;;;;;;;;;;13.80;92.40;;;;;;5073943;28;19908;-80
2021/12/08 10:18:26;;;;;;;;;;;14.20;91.20;;;;;;5073542;28;19915;-80
2021/12/08 10:20:53;;;;;;;;;;;14.00;89.20;;;;;;5073829;28;19908;-81
2021/12/08 10:23:22;;;;;;;;;;;13.70;90.60;;;;;;5073708;28;20361;-80
2021/12/08 10:25:47;;;;;;;;;;;13.70;89.80;;;;;;5072474;28;19957;-80
2021/12/08 10:28:13;;;;;;;;;;;13.80;90.60;;;;;;5073839;28;19908;-81
2021/12/08 10:30:51;;;;;;;;;;;14.10;85.20;;;;;;5072493;28;19918;-80
2021/12/08 10:33:51;;;;;;;;;;;14.40;86.50;;;;;;5072230;28;19951;-81
2021/12/08 10:36:35;;;;;;;;;;;14.20;86.40;;;;;;5073984;28;19908;-80
2021/12/08 10:39:06;;;;;;;;;;;16.90;78.80;;;;;;5073819;28;19909;-81
2021/12/08 10:41:49;;;;;;;;;;;16.60;78.00;;;;;;5072359;28;19998;-80
2021/12/08 10:44:15;;;;;;;;;;;14.00;79.20;;;;;;5073685;28;20003;-80
2021/12/08 10:46:41;;;;;;;;;;;14.60;81.70;;;;;;5073694;28;19955;-80
2021/12/08 10:49:17;;;;;;;;;;;13.60;82.90;;;;;;5072212;28;19959;-80
2021/12/08 10:54:30;;;;;;;;;;;15.30;80.80;;;;;;5073538;28;20292;-80
2021/12/08 10:56:58;;;;;;;;;;;14.60;79.90;;;;;;5073632;28;19909;-81
2021/12/08 10:59:28;;;;;;;;;;;15.20;77.10;;;;;;5073448;28;19908;-81
2021/12/08 11:01:59;;;;;;;;;;;16.60;76.60;;;;;;5073418;28;19915;-81
2021/12/08 11:04:31;;;;;;;;;;;16.30;73.60;;;;;;5073632;28;19916;-81
2021/12/08 11:07:07;;;;;;;;;;;16.70;75.80;;;;;;5076167;28;19909;-81
2021/12/08 11:09:40;;;;;;;;;;;16.70;71.90;;;;;;5077601;28;19919;-81
2021/12/08 11:12:06;;;;;;;;;;;15.90;73.20;;;;;;5090931;28;20380;-81
2021/12/08 11:14:50;;;;;;;;;;;18.00;70.30;;;;;;5079424;28;19915;-81
2021/12/08 11:17:23;;;;;;;;;;;16.80;70.50;;;;;;5079355;28;19915;-81
2021/12/08 11:19:49;;;;;;;;;;;16.60;70.10;;;;;;5097441;28;20380;-81
2021/12/08 11:22:16;;;;;;;;;;;16.00;73.60;;;;;;5097535;28;19908;-80
2021/12/08 11:24:55;;;;;;;;;;;16.10;68.30;;;;;;5097491;28;19921;-81
2021/12/08 11:27:29;;;;;;;;;;;16.00;71.70;;;;;;5097649;28;19950;-81
2021/12/08 11:29:55;;;;;;;;;;;17.30;69.50;;;;;;5079039;28;19960;-80
2021/12/08 11:32:23;;;;;;;;;;;17.10;68.60;;;;;;5097341;28;19908;-79
2021/12/08 11:34:48;;;;;;;;;;;15.20;69.40;;;;;;5079001;28;19908;-80
2021/12/08 11:37:15;;;;;;;;;;;16.60;71.20;;;;;;5097162;28;20281;-80
2021/12/08 11:39:47;;;;;;;;;;;15.60;70.60;;;;;;5097033;28;19908;-81
2021/12/08 11:42:18;;;;;;;;;;;15.40;70.00;;;;;;5097043;28;19909;-80
2021/12/08 11:44:46;;;;;;;;;;;17.50;69.00;;;;;;5097542;28;20264;-80
2021/12/08 11:47:14;;;;;;;;;;;17.40;70.00;;;;;;5096959;28;19915;-79
2021/12/08 11:49:45;;;;;;;;;;;16.60;70.20;;;;;;5097302;28;20464;-81
2021/12/08 11:52:15;;;;;;;;;;;16.00;67.70;;;;;;5096928;28;19908;-82
2021/12/08 11:54:50;;;;;;;;;;;16.20;68.50;;;;;;5097126;28;20261;-80
2021/12/08 11:57:19;;;;;;;;;;;18.70;67.30;;;;;;5097015;28;19908;-81
2021/12/08 12:00:05;;;;;;;;;;;18.20;65.00;;;;;;5096627;28;19908;-81
2021/12/08 12:02:38;;;;;;;;;;;19.20;62.80;;;;;;5095908;28;19919;-81
2021/12/08 12:05:07;;;;;;;;;;;20.30;61.80;;;;;;5096908;28;19908;-80
2021/12/08 12:07:33;;;;;;;;;;;17.30;62.20;;;;;;5078461;28;19966;-80
2021/12/08 12:09:59;;;;;;;;;;;16.50;65.10;;;;;;5078315;28;19913;-82
2021/12/08 12:12:25;;;;;;;;;;;19.90;62.50;;;;;;5096313;28;20003;-82
2021/12/08 12:14:51;;;;;;;;;;;19.00;59.60;;;;;;5078232;28;19958;-81
2021/12/08 12:17:17;;;;;;;;;;;18.40;59.80;;;;;;5078243;28;19908;-81
2021/12/08 12:19:47;;;;;;;;;;;20.00;60.70;;;;;;5096360;28;19931;-82
2021/12/08 12:22:31;;;;;;;;;;;19.20;58.60;;;;;;5096456;28;20017;-81
2021/12/08 12:25:15;;;;;;;;;;;19.10;58.90;;;;;;5096221;28;19908;-80
2021/12/08 12:27:41;;;;;;;;;;;18.70;58.90;;;;;;5078037;28;19909;-81
2021/12/08 12:30:14;;;;;;;;;;;16.10;61.30;;;;;;5096056;28;20421;-80
2021/12/08 12:32:51;;;;;;;;;;;14.50;67.70;;;;;;5077123;28;19962;-80
2021/12/08 12:35:16;;;;;;;;;;;13.90;72.10;;;;;;5096045;28;19934;-81
2021/12/08 12:37:43;;;;;;;;;;;12.90;73.40;;;;;;5096191;28;19908;-80
2021/12/08 12:40:17;;;;;;;;;;;12.10;76.50;;;;;;5096046;28;19936;-81
2021/12/08 12:42:43;;;;;;;;;;;11.40;81.90;;;;;;5077495;28;19957;-80
2021/12/08 12:45:12;;;;;;;;;;;12.30;81.00;;;;;;5077525;28;19908;-80
2021/12/08 12:47:37;;;;;;;;;;;13.80;77.80;;;;;;5094501;28;20331;-80
2021/12/08 12:50:20;;;;;;;;;;;14.20;71.50;;;;;;5095709;28;19959;-80
2021/12/08 12:52:53;;;;;;;;;;;14.30;72.40;;;;;;5077610;28;19908;-80
2021/12/08 12:55:28;;;;;;;;;;;12.60;77.10;;;;;;5095734;28;20435;-80
2021/12/08 12:58:05;;;;;;;;;;;12.50;80.00;;;;;;5095657;28;19991;-80
2021/12/08 13:00:34;;;;;;;;;;;11.10;83.50;;;;;;5095860;28;20380;-79
2021/12/08 13:03:01;;;;;;;;;;;11.10;87.00;;;;;;5095684;28;20364;-81
2021/12/08 13:05:45;;;;;;;;;;;10.20;90.30;;;;;;5077381;28;19908;-80
2021/12/08 13:08:11;;;;;;;;;;;10.30;90.20;;;;;;5095310;28;20340;-80
2021/12/08 13:10:39;;;;;;;;;;;11.80;88.90;;;;;;5077081;28;19999;-81
2021/12/08 13:13:12;;;;;;;;;;;12.80;83.30;;;;;;5095573;28;19915;-81
2021/12/08 13:15:40;;;;;;;;;;;12.60;81.10;;;;;;5095273;28;19915;-80
2021/12/08 13:18:06;;;;;;;;;;;13.60;81.20;;;;;;5095584;28;19908;-81
2021/12/08 13:20:43;;;;;;;;;;;14.10;77.90;;;;;;5095175;28;20422;-79
2021/12/08 13:23:10;;;;;;;;;;;14.10;76.00;;;;;;5095255;28;19999;-80
2021/12/08 13:28:55;;;;;;;;;;;13.60;75.20;;;;;;5071227;28;20323;-81
2021/12/08 13:34:02;;;;;;;;;;;14.70;74.10;;;;;;5095023;28;19908;-81
2021/12/08 13:36:31;;;;;;;;;;;14.30;72.40;;;;;;5095059;28;20388;-78
2021/12/08 13:38:57;;;;;;;;;;;15.00;75.40;;;;;;5076587;28;20365;-80
2021/12/08 13:41:23;;;;;;;;;;;15.80;72.10;;;;;;5094828;28;19908;-81
2021/12/08 13:43:50;;;;;;;;;;;17.00;69.60;;;;;;5094755;28;19954;-80
2021/12/08 13:46:34;;;;;;;;;;;18.00;66.80;;;;;;5095030;28;19908;-80
2021/12/08 13:49:19;;;;;;;;;;;16.00;69.60;;;;;;5094784;28;19912;-81
2021/12/08 13:52:13;;;;;;;;;;;17.10;67.70;;;;;;5094876;28;19951;-80
2021/12/08 13:54:39;;;;;;;;;;;16.60;68.50;;;;;;5076131;28;20334;-82
2021/12/08 13:57:24;;;;;;;;;;;15.90;72.70;;;;;;5094686;28;20322;-80
2021/12/08 13:59:54;;;;;;;;;;;15.80;70.20;;;;;;5094693;28;19966;-81
2021/12/08 14:02:23;;;;;;;;;;;15.50;71.70;;;;;;5094619;28;19961;-79
2021/12/08 14:04:48;;;;;;;;;;;15.10;70.30;;;;;;5076180;28;19908;-81
2021/12/08 14:07:15;;;;;;;;;;;14.10;74.50;;;;;;5094297;28;19915;-81
2021/12/08 14:09:41;;;;;;;;;;;15.90;72.40;;;;;;5094250;28;19957;-80
2021/12/08 14:12:06;;;;;;;;;;;16.70;70.40;;;;;;5094033;28;19920;-81
2021/12/08 14:14:32;;;;;;;;;;;17.00;69.70;;;;;;5094367;28;20392;-81
2021/12/08 14:16:57;;;;;;;;;;;16.10;69.20;;;;;;5076046;28;19923;-82
2021/12/08 14:19:23;;;;;;;;;;;17.80;67.80;;;;;;5076009;28;19915;-80
2021/12/08 14:21:49;;;;;;;;;;;18.20;66.90;;;;;;5094101;28;19988;-81
2021/12/08 14:24:14;;;;;;;;;;;17.60;65.60;;;;;;5075908;28;19908;-80
2021/12/08 14:26:40;;;;;;;;;;;18.90;64.20;;;;;;5094046;28;19920;-82
2021/12/08 14:29:19;;;;;;;;;;;18.60;63.70;;;;;;5075673;28;19916;-81
2021/12/08 14:31:51;;;;;;;;;;;19.60;63.90;;;;;;5075538;28;19915;-81
2021/12/08 14:34:26;;;;;;;;;;;18.80;60.80;;;;;;5075826;28;19939;-81
2021/12/08 14:37:10;;;;;;;;;;;19.60;60.30;;;;;;5093977;28;20291;-81
2021/12/08 14:39:39;;;;;;;;;;;20.10;60.20;;;;;;5093252;28;19931;-80
2021/12/08 14:42:07;;;;;;;;;;;20.70;58.50;;;;;;5075811;28;19915;-81
2021/12/08 14:44:34;;;;;;;;;;;20.00;58.40;;;;;;5093987;28;19908;-81
2021/12/08 14:47:03;;;;;;;;;;;18.20;60.50;;;;;;5093747;28;19920;-81
2021/12/08 14:49:31;;;;;;;;;;;17.30;62.80;;;;;;5086207;28;20365;-81
2021/12/08 14:52:07;;;;;;;;;;;17.00;63.90;;;;;;5074924;28;20439;-81
2021/12/08 14:54:36;;;;;;;;;;;16.70;64.40;;;;;;5075028;28;19908;-79
2021/12/08 14:57:08;;;;;;;;;;;16.60;64.20;;;;;;5075072;28;19942;-80
2021/12/08 14:59:35;;;;;;;;;;;16.00;65.90;;;;;;5071884;28;19908;-81
2021/12/08 15:02:01;;;;;;;;;;;16.00;66.90;;;;;;5073089;28;20292;-81
2021/12/08 15:04:26;;;;;;;;;;;15.80;67.20;;;;;;5072922;28;19991;-81
2021/12/08 15:06:58;;;;;;;;;;;15.50;67.90;;;;;;5073034;28;20003;-79
2021/12/08 15:09:25;;;;;;;;;;;15.20;68.90;;;;;;5072066;28;19912;-80
2021/12/08 15:11:55;;;;;;;;;;;14.80;68.70;;;;;;5074763;28;19952;-78
2021/12/08 15:14:22;;;;;;;;;;;14.80;69.60;;;;;;5093124;28;19915;-80
2021/12/08 15:16:49;;;;;;;;;;;14.50;70.30;;;;;;5066196;28;19962;-81
2021/12/08 15:19:15;;;;;;;;;;;14.20;71.30;;;;;;5089079;28;19908;-79
2021/12/08 15:21:42;;;;;;;;;;;14.00;71.70;;;;;;5074637;28;19915;-80
2021/12/08 15:24:10;;;;;;;;;;;13.80;73.00;;;;;;5091914;28;19954;-80
2021/12/08 15:26:36;;;;;;;;;;;12.80;75.30;;;;;;5093110;28;19908;-79
2021/12/08 15:29:03;;;;;;;;;;;12.60;76.20;;;;;;5092450;28;19995;-80